EST,Max TemperatureF,Mean TemperatureF,Min TemperatureF,Max Dew PointF,MeanDew PointF,Min DewpointF,Max Humidity, Mean Humidity, Min Humidity, Max Sea Level PressureIn, Mean Sea Level PressureIn, Min Sea Level PressureIn, Max VisibilityMiles, Mean VisibilityMiles, Min VisibilityMiles, Max Wind SpeedMPH, Mean Wind SpeedMPH, Max Gust SpeedMPH,PrecipitationIn, CloudCover, Events, WindDirDegrees
2012-11-1,43,40,37,38,35,31,89,83,76,29.80,29.71,29.64,10,9,3,15,11,21,0.20,8,Rain,253
2012-11-2,42,40,37,32,30,28,79,70,57,30.02,29.87,29.74,10,10,9,13,9,26,0.00,8,Rain,286
2012-11-3,45,40,36,31,30,28,76,67,56,30.13,30.09,29.99,10,10,10,14,9,21,0.00,8,,302
2012-11-4,39,38,37,32,27,23,79,64,51,30.14,30.12,30.08,10,10,10,9,6,,0.00,8,,332
2012-11-5,39,37,35,30,26,22,81,63,51,30.20,30.15,30.11,10,10,10,8,4,,0.00,8,,319
2012-11-6,48,38,28,26,23,19,69,57,41,30.17,30.06,29.98,10,10,10,7,3,,0.00,1,,88
2012-11-7,41,36,30,24,22,19,75,60,48,30.06,29.99,29.94,10,10,7,9,4,,0.00,0,,7
2012-11-8,46,36,27,27,24,19,72,61,44,30.19,30.14,30.06,10,10,10,14,6,23,0.00,0,,315
2012-11-9,54,41,28,32,29,25,93,65,43,30.29,30.23,30.18,10,8,2,12,5,,0.00,0,,213
2012-11-10,66,54,41,36,33,30,79,51,28,30.29,30.24,30.19,10,9,5,12,6,,0.02,4,Rain,170
2012-11-11,70,59,48,36,33,31,63,38,25,30.38,30.28,30.22,10,10,8,14,9,,0.00,0,,168
2012-11-12,71,55,39,54,41,33,88,66,39,30.34,30.18,29.98,10,8,2,28,12,36,0.34,5,Rain,208
2012-11-13,39,36,32,34,23,19,81,62,48,30.55,30.43,30.31,10,10,10,17,9,29,0.00,7,,288
2012-11-14,39,36,32,26,22,20,73,60,53,30.58,30.51,30.40,10,10,10,8,4,,0.00,4,,51
2012-11-15,48,39,30,26,24,22,75,56,39,30.38,30.34,30.31,10,10,10,6,1,,0.08,0,,6
2012-11-16,50,40,30,29,26,25,82,59,38,30.51,30.42,30.33,10,10,7,8,5,,0.00,0,,337
2012-11-17,55,44,33,28,26,24,78,55,33,30.62,30.56,30.51,10,10,10,7,4,,0.00,0,,33
2012-11-18,55,44,34,29,26,25,70,50,34,30.56,30.51,30.46,10,10,10,7,4,,0.00,0,,110
2012-11-19,52,43,34,33,30,26,82,61,45,30.44,30.35,30.22,10,9,3,5,3,,0.00,0,,82
2012-11-20,53,45,37,34,31,28,82,60,38,30.20,30.16,30.11,10,10,6,5,0,,0.00,2,,315
2012-11-21,57,46,36,33,29,22,86,53,26,30.25,30.21,30.15,10,10,8,5,1,,0.00,1,,179
2012-11-22,59,44,30,30,28,26,85,52,28,30.27,30.19,30.05,10,9,4,9,5,,0.00,0,,169
2012-11-23,50,40,30,45,31,18,87,62,38,30.04,29.91,29.79,10,9,2,23,12,36,0.01,6,Rain-Snow,225
2012-11-24,32,30,28,25,21,15,86,68,54,30.11,30.04,29.97,10,7,1,18,13,28,0.01,8,Snow,271
2012-11-25,39,34,28,20,18,16,72,57,39,30.08,30.00,29.89,10,9,2,18,9,23,0.01,5,Snow,231
2012-11-26,45,39,33,25,22,19,66,53,39,30.22,30.16,30.03,10,10,10,8,5,,0.00,3,,269
2012-11-27,36,34,32,31,27,20,89,75,59,30.32,30.25,30.18,10,7,1,10,4,,0.03,8,Snow,331
2012-11-28,39,34,30,20,18,14,61,54,36,30.39,30.32,30.23,10,10,10,17,7,23,0.00,4,,258
2012-11-29,44,35,26,23,20,18,71,55,38,30.44,30.37,30.31,10,10,7,12,7,17,0.00,0,,198
2012-11-30,54,42,30,27,24,20,69,47,34,30.32,30.28,30.22,10,10,8,12,7,,0.00,4,,183